RJAW/IWO METAR and TAF weather

Enter ICAO airport designator
Station Type Date Time Source
RJAW METAR 2020/09/22 07:00 UTC NOAA

RJAW 220700Z 14012KT 9999 SCT015 BKN230 29/25 Q1008 RMK 3CU015 A2978


Station Type Date Time Source
RJAW Decoded METAR 2020/09/22 07:00 UTC NOAA

Iwojima, Japan (RJAW) 24-47N 141-19E 116M
Sep 22, 2020 - 03:00 AM EDT / 2020.09.22 0700 UTC
Wind: from the SE (140 degrees) at 14 MPH (12 KT):0
Visibility: greater than 7 mile(s):0
Sky conditions: mostly cloudy
Temperature: 84 F (29 C)
Dew Point: 77 F (25 C)
Relative Humidity: 79%
Pressure (altimeter): 29.77 in. Hg (1008 hPa)
ob: RJAW 220700Z 14012KT 9999 SCT015 BKN230 29/25 Q1008 RMK 3CU015 A2978
cycle: 7

Station Type Date Time Source
RJAW TAF UTC NOAA

Error!

Example: see airport list